Bookmark and Share
Track history (hours):
 

Federal Polaris

Last reported at 2014-Apr-16 07:25 UTC. Time now 2014-Apr-24 19:52 UTC.
Position N 34°40' E 033°04'.
Warning: this ship's position is 8 days out of date.

Length 182 m; draft 6.4 m.

Type: Ship. MMSI: 538004185.

NotesDate/timePositionNaut miles runAvg speedWind from/ knotsBaromVisibWave heightAir tempDewpointWater temp
2014-Apr-16 07:25N 34°40' E 033°04'0 0.0
2014-Apr-16 06:31N 34°40' E 033°04'0 0.0
2014-Apr-16 05:31N 34°40' E 033°04'0 0.0
2014-Apr-16 04:31N 34°40' E 033°04'0 0.0
2014-Apr-16 03:31N 34°40' E 033°04'0 0.0
2014-Apr-16 02:31N 34°40' E 033°04'0 0.0
2014-Apr-16 01:28N 34°40' E 033°04'0 0.0
2014-Apr-16 00:31N 34°40' E 033°04'0 0.0
2014-Apr-15 23:31N 34°40' E 033°04'0 0.0
2014-Apr-15 22:31N 34°40' E 033°04'0 0.0
2014-Apr-15 21:31N 34°40' E 033°04'0 0.0
2014-Apr-15 20:31N 34°40' E 033°04'0 0.0
2014-Apr-15 19:31N 34°40' E 033°04'0 0.0
2014-Apr-15 18:31N 34°40' E 033°04'0 0.0
2014-Apr-15 17:31N 34°40' E 033°04'0 0.1
2014-Apr-15 16:31N 34°40' E 033°04'0 0.0
2014-Apr-15 15:31N 34°40' E 033°04'0 0.0
2014-Apr-15 14:31N 34°40' E 033°04'0 0.0
2014-Apr-15 12:31N 34°40' E 033°04'0 0.0
2014-Apr-15 11:31N 34°40' E 033°04'0 0.0
2014-Apr-15 10:31N 34°40' E 033°04'0 0.1
2014-Apr-15 09:31N 34°40' E 033°04'0 0.0
2014-Apr-15 08:33N 34°40' E 033°04'0 0.0
2014-Apr-15 07:33N 34°40' E 033°04'0 0.0
2014-Apr-15 06:33N 34°40' E 033°04'0 0.0
2014-Apr-15 05:33N 34°40' E 033°04'0 0.0
2014-Apr-15 03:33N 34°40' E 033°04'0 0.0
2014-Apr-15 02:33N 34°40' E 033°04'0 0.0
2014-Apr-15 01:33N 34°40' E 033°04'0 0.0
2014-Apr-15 00:33N 34°40' E 033°04'0 0.0
2014-Apr-14 23:33N 34°40' E 033°04'0 0.0
2014-Apr-14 22:33N 34°40' E 033°04'0 0.0
2014-Apr-14 21:33N 34°40' E 033°04'0 0.0
2014-Apr-14 20:33N 34°40' E 033°04'0 0.1
2014-Apr-14 19:33N 34°40' E 033°04'0 0.0
2014-Apr-14 17:30N 34°40' E 033°04'0 0.0
2014-Apr-14 16:30N 34°40' E 033°04'0 0.1
2014-Apr-14 15:33N 34°40' E 033°04'0 0.0
2014-Apr-14 14:33N 34°40' E 033°04'0 0.0
2014-Apr-14 13:33N 34°40' E 033°04'0 0.1
2014-Apr-14 11:33N 34°40' E 033°04'0 0.0
2014-Apr-14 10:29N 34°40' E 033°04'0 0.0
2014-Apr-14 09:32N 34°40' E 033°04'0 0.0
2014-Apr-14 08:32N 34°40' E 033°04'0 0.0
2014-Apr-14 07:32N 34°40' E 033°04'0 0.0
2014-Apr-14 06:32N 34°40' E 033°04'0 0.0
2014-Apr-14 05:32N 34°40' E 033°04'0 0.0
2014-Apr-13 22:32N 34°40' E 033°04'0 0.0
2014-Apr-13 21:32N 34°40' E 033°04'0 0.1
2014-Apr-13 20:32N 34°40' E 033°04'0 0.2
2014-Apr-13 19:32N 34°40' E 033°04'0 0.0
2014-Apr-13 18:32N 34°40' E 033°04'0 0.0
2014-Apr-13 17:32N 34°40' E 033°04'0 0.0
2014-Apr-13 16:32N 34°40' E 033°04'0 0.0
2014-Apr-13 15:32N 34°40' E 033°04'0 0.0
2014-Apr-13 14:32N 34°40' E 033°04'0 0.1
2014-Apr-13 13:32N 34°40' E 033°04'0 0.1
2014-Apr-13 12:32N 34°40' E 033°04'0 0.1
2014-Apr-13 11:32N 34°40' E 033°04'0 0.0
2014-Apr-13 10:32N 34°40' E 033°04'0 0.0
2014-Apr-13 09:32N 34°40' E 033°04'0 0.0
2014-Apr-13 08:32N 34°40' E 033°04'0 0.0
2014-Apr-13 07:32N 34°40' E 033°04'0 0.0
2014-Apr-13 06:32N 34°40' E 033°04'0 0.0
2014-Apr-13 05:32N 34°40' E 033°04'0 0.0
2014-Apr-13 04:32N 34°40' E 033°04'0 0.1
2014-Apr-13 03:33N 34°40' E 033°04'2 2.2
2014-Apr-13 02:33N 34°37' E 033°04'1111.2
2014-Apr-13 01:34N 34°27' E 032°58'1211.9
2014-Apr-13 00:34N 34°18' E 032°49'1211.5
2014-Apr-12 23:29N 34°09' E 032°39'1411.7
2014-Apr-12 22:17N 33°58' E 032°28'811.7
2014-Apr-12 21:33N 33°52' E 032°21'204 8.1
2014-Apr-11 20:17N 31°11' E 029°52'  
2014-Apr-06 13:08N 31°11' E 029°52'1 0.2
2014-Apr-06 10:33N 31°11' E 029°52'4 4.2
2014-Apr-06 09:33N 31°11' E 029°47'3 3.0
2014-Apr-06 08:31N 31°14' E 029°45'0 0.1
2014-Apr-06 07:31N 31°14' E 029°45'  

Dump ship's entire track history

sailing weather and tide predictions

Federal Polaris — V7VQ3 — position and weather